KMXF

Maxwell AFB Airport

Montgomery, Alabama, USA
METAR KMXF 230256Z AUTO 15004KT 10SM FEW033 SCT120 23/22 A3003 RMK AO2 SLP170 T02320220 52018 $
Observed Flight Rules
May-23 @ 02:56 UTC (28 minutes ago) Visual Flight Rules
Wind Visibility Clouds
150° at 4 knots 10 miles
  • Few at 3,300' AGL
  • Scattered at 12,000' AGL
Temperatures Readings
Current 23°C / 73°F
Dewpoint 22°C / 72°F
Humidity 94%
Altimeter 30.03" Hg
Pressure 1017 hPa
Elevation 51
METAR KMXF 230256Z AUTO 15004KT 10SM FEW033 SCT120 23/22 A3003 RMK AO2 SLP170 T02320220 52018 $
Observed Flight Rules
May-23 @ 02:56 UTC
(28 minutes ago)
VFR
Wind Visibility
150° at 4 knots 10 miles
Clouds
  • Few at 3,300' AGL
  • Scattered at 12,000' AGL
Temperature Dewpoint
23°C / 73°F 22°C / 72°F
Humidity Altimeter Pressure
94% 30.03" Hg 1017 hPa